»·PEaware :: N232WP KIFP-KBUR

N232WP :: KIFP-KBUR

FLIGHT INFORMATION

Flight Status: Arrived
Operator: Privately registered:
United States
More flights under this callsign
Pilot: Walter P. (10403)
Aircraft: BOEING 737-200
(B732)
More flights by this aircraft type
Origin: KIFP Laughlin/Bullhead Intl
United States
Destination: KBUR Bob Hope-Burbank
United States
More flights between these airports :: More routes between these airports
Route: +EED HEC LYNNX8
File this flight plan on PilotEdge
Remarks:
Altitude:
(Current/Filed)
24,000ft
Speed:
(Current/Filed)
450kts
Departed: 29-Jun-18 03:51 PM
Arrived: 29-Jun-18 04:38 PM
Distance/Time
Traveled:
196nm/0:47
Distance/Time
To Go:
Arrived

Flight Plot

Page will automatically refresh every two minutes.

Flight plan parsing failed; only flown route is shown


Map Options




Map Legend


Flown Route
Filed Route
Departure Airport
Arrival Airport
Navaid (VOR, NDB)
Fix

Horizontal Profiles

Position Reports

Time Latitude Longitude Heading Altitude Ground
Speed
29-Jun-18 15:11 35.164720 -114.556296 84 704ft 0kts
29-Jun-18 15:12 35.164720 -114.556296 84 704ft 0kts
29-Jun-18 15:13 35.164720 -114.556296 84 704ft 0kts
29-Jun-18 15:14 35.164720 -114.556296 84 704ft 0kts
29-Jun-18 15:15 35.164720 -114.556296 84 704ft 0kts
29-Jun-18 15:16 35.164720 -114.556296 84 704ft 0kts
29-Jun-18 15:17 35.164720 -114.556296 84 704ft 0kts
29-Jun-18 15:18 35.164720 -114.556296 84 704ft 0kts
29-Jun-18 15:19 35.164720 -114.556296 84 704ft 0kts
29-Jun-18 15:20 35.164720 -114.556296 84 704ft 0kts
29-Jun-18 15:21 35.164720 -114.556296 84 704ft 0kts
29-Jun-18 15:22 35.164720 -114.556296 84 704ft 0kts
29-Jun-18 15:23 35.164720 -114.556296 84 704ft 0kts
29-Jun-18 15:24 35.164720 -114.556296 84 704ft 0kts
29-Jun-18 15:25 35.164720 -114.556296 84 704ft 0kts
29-Jun-18 15:26 35.164720 -114.556296 84 704ft 0kts
29-Jun-18 15:27 35.164720 -114.556296 84 704ft 0kts
29-Jun-18 15:28 35.164720 -114.556296 84 704ft 0kts
29-Jun-18 15:29 35.164720 -114.556296 84 704ft 0kts
29-Jun-18 15:30 35.164720 -114.556296 84 704ft 0kts
29-Jun-18 15:31 35.164720 -114.556296 84 704ft 0kts
29-Jun-18 15:32 35.164720 -114.556296 84 704ft 0kts
29-Jun-18 15:33 35.164720 -114.556296 84 704ft 0kts
29-Jun-18 15:34 35.164720 -114.556296 84 704ft 0kts
29-Jun-18 15:35 35.164720 -114.556296 84 704ft 0kts
29-Jun-18 15:36 35.164720 -114.556296 84 704ft 0kts
29-Jun-18 15:37 35.164720 -114.556296 84 704ft 0kts
29-Jun-18 15:38 35.164720 -114.556296 84 704ft 0kts
29-Jun-18 15:39 35.164720 -114.556297 84 704ft 0kts
29-Jun-18 15:40 35.164689 -114.556644 64 704ft 2kts
29-Jun-18 15:41 35.164367 -114.556840 354 704ft 0kts
29-Jun-18 15:42 35.164367 -114.556840 354 704ft 0kts
29-Jun-18 15:43 35.164367 -114.556840 354 704ft 0kts
29-Jun-18 15:44 35.164367 -114.556840 354 704ft 0kts
29-Jun-18 15:45 35.164367 -114.556840 354 704ft 0kts
29-Jun-18 15:46 35.164367 -114.556840 354 704ft 0kts
29-Jun-18 15:47 35.165074 -114.558531 291 704ft 7kts
29-Jun-18 15:48 35.166164 -114.559139 277 704ft 0kts
29-Jun-18 15:49 35.166164 -114.559139 277 704ft 0kts
29-Jun-18 15:50 35.165254 -114.560106 175 704ft 29kts
29-Jun-18 15:51 35.129123 -114.559710 177 1503ft 185kts
29-Jun-18 15:52 35.082212 -114.557882 174 4059ft 203kts
29-Jun-18 15:53 35.023416 -114.553739 175 6983ft 224kts
29-Jun-18 15:54 34.954990 -114.534541 163 6985ft 260kts
29-Jun-18 15:55 34.884491 -114.510880 164 8360ft 267kts
29-Jun-18 15:56 34.811281 -114.488946 174 11172ft 285kts
29-Jun-18 15:57 34.756919 -114.553875 255 13485ft 317kts
29-Jun-18 15:58 34.753260 -114.660367 259 15717ft 332kts
29-Jun-18 15:59 34.742196 -114.761542 270 17929ft 330kts
29-Jun-18 16:00 34.742275 -114.873354 273 19631ft 344kts
29-Jun-18 16:01 34.745855 -114.989952 275 21332ft 352kts
29-Jun-18 16:02 34.750479 -115.110103 276 22826ft 361kts
29-Jun-18 16:03 34.755397 -115.234016 276 23781ft 381kts
29-Jun-18 16:04 34.760675 -115.369003 275 23785ft 419kts
29-Jun-18 16:05 34.766201 -115.515738 275 23781ft 447kts
29-Jun-18 16:06 34.771654 -115.667576 274 23838ft 450kts
29-Jun-18 16:07 34.776283 -115.814237 275 23912ft 447kts
29-Jun-18 16:08 34.781316 -115.963986 275 23912ft 449kts
29-Jun-18 16:09 34.786295 -116.115866 275 23911ft 451kts
29-Jun-18 16:10 34.791103 -116.268211 275 23848ft 453kts
29-Jun-18 16:11 34.795720 -116.420844 275 23802ft 452kts
29-Jun-18 16:12 34.800161 -116.573322 274 23802ft 450kts
29-Jun-18 16:13 34.787943 -116.723683 257 23814ft 454kts
29-Jun-18 16:14 34.764071 -116.873195 264 23803ft 451kts
29-Jun-18 16:15 34.747274 -117.021048 265 23803ft 450kts
29-Jun-18 16:16 34.731691 -117.165202 265 22590ft 430kts
29-Jun-18 16:17 34.716390 -117.306481 264 20899ft 406kts
29-Jun-18 16:18 34.702133 -117.436551 265 20835ft 373kts
29-Jun-18 16:19 34.688504 -117.559851 264 19041ft 365kts
29-Jun-18 16:20 34.675131 -117.678541 263 16910ft 357kts
29-Jun-18 16:21 34.662377 -117.791015 263 14806ft 351kts
29-Jun-18 16:22 34.650280 -117.897531 264 13875ft 310kts
29-Jun-18 16:23 34.639685 -117.990320 264 13886ft 264kts
29-Jun-18 16:24 34.625337 -118.070543 252 13897ft 265kts
29-Jun-18 16:25 34.601197 -118.154237 254 13894ft 263kts
29-Jun-18 16:26 34.580330 -118.238230 258 12966ft 264kts
29-Jun-18 16:27 34.562097 -118.322090 257 10896ft 249kts
29-Jun-18 16:28 34.546874 -118.400112 258 8874ft 236kts
29-Jun-18 16:29 34.534656 -118.476035 258 7966ft 224kts
29-Jun-18 16:30 34.517798 -118.546380 230 7483ft 226kts
29-Jun-18 16:31 34.455942 -118.555852 163 6212ft 244kts
29-Jun-18 16:32 34.422603 -118.486402 112 5078ft 253kts
29-Jun-18 16:33 34.390654 -118.420824 147 5367ft 214kts
29-Jun-18 16:34 34.339815 -118.397842 167 4507ft 195kts
29-Jun-18 16:35 34.288215 -118.381972 165 2823ft 188kts
29-Jun-18 16:36 34.242607 -118.368986 165 1654ft 149kts
29-Jun-18 16:37 34.207622 -118.359151 168 786ft 117kts
29-Jun-18 16:38 34.196642 -118.355616 357 785ft 7kts
29-Jun-18 16:39 34.197410 -118.354627 92 785ft 8kts
29-Jun-18 16:40 34.197308 -118.351063 159 785ft 2kts
29-Jun-18 16:41 34.196807 -118.351063 182 785ft 0kts
29-Jun-18 16:42 34.196807 -118.351063 182 785ft 0kts
29-Jun-18 16:43 34.196807 -118.351063 182 785ft 0kts
29-Jun-18 16:44 34.196807 -118.351063 182 785ft 0kts
29-Jun-18 16:45 34.196807 -118.351063 182 785ft 0kts
29-Jun-18 16:46 34.196807 -118.351063 182 785ft 0kts
29-Jun-18 16:47 34.196807 -118.351063 182 785ft 0kts
29-Jun-18 16:48 34.196807 -118.351063 182 785ft 0kts
29-Jun-18 16:49 34.196807 -118.351063 182 785ft 0kts
29-Jun-18 16:50 34.196807 -118.351063 182 785ft 0kts
29-Jun-18 16:51 34.196807 -118.351063 182 785ft 0kts
29-Jun-18 16:52 34.196807 -118.351063 182 785ft 0kts

Navigation Log

Ident Type
Flight plan parsing failed, navigation log unavailable